sensor_id;sensor_type;location;lat;lon;timestamp;pressure;altitude;pressure_sealevel;temperature;humidity
67840;BME280;54636;51.684;5.142;2024-03-02T00:01:50;99896.09;;;8.24;100.00
67840;BME280;54636;51.684;5.142;2024-03-02T00:04:16;99900.50;;;8.16;100.00
67840;BME280;54636;51.684;5.142;2024-03-02T00:06:42;99902.06;;;7.86;100.00
67840;BME280;54636;51.684;5.142;2024-03-02T00:09:09;99896.38;;;7.78;100.00
67840;BME280;54636;51.684;5.142;2024-03-02T00:11:37;99883.31;;;7.71;100.00
67840;BME280;54636;51.684;5.142;2024-03-02T00:14:03;99886.50;;;7.70;100.00
67840;BME280;54636;51.684;5.142;2024-03-02T00:16:31;99907.09;;;7.62;100.00
67840;BME280;54636;51.684;5.142;2024-03-02T00:19:01;99891.16;;;7.69;100.00
67840;BME280;54636;51.684;5.142;2024-03-02T00:21:30;99903.56;;;7.50;100.00
67840;BME280;54636;51.684;5.142;2024-03-02T00:23:56;99899.81;;;7.42;100.00
67840;BME280;54636;51.684;5.142;2024-03-02T00:26:21;99907.13;;;7.36;100.00
67840;BME280;54636;51.684;5.142;2024-03-02T00:28:47;99900.47;;;7.31;100.00
67840;BME280;54636;51.684;5.142;2024-03-02T00:31:15;99899.47;;;7.28;100.00
67840;BME280;54636;51.684;5.142;2024-03-02T00:33:46;99894.97;;;7.20;100.00
67840;BME280;54636;51.684;5.142;2024-03-02T00:36:26;99906.00;;;7.16;100.00
67840;BME280;54636;51.684;5.142;2024-03-02T00:38:53;99908.69;;;7.16;100.00
67840;BME280;54636;51.684;5.142;2024-03-02T00:44:02;99916.84;;;7.22;100.00
67840;BME280;54636;51.684;5.142;2024-03-02T00:46:36;99908.88;;;7.07;100.00
67840;BME280;54636;51.684;5.142;2024-03-02T00:49:03;99894.16;;;7.08;100.00
67840;BME280;54636;51.684;5.142;2024-03-02T00:51:33;99904.91;;;7.03;100.00
67840;BME280;54636;51.684;5.142;2024-03-02T00:54:01;99905.44;;;7.07;100.00
67840;BME280;54636;51.684;5.142;2024-03-02T00:56:29;99905.19;;;7.05;100.00
67840;BME280;54636;51.684;5.142;2024-03-02T00:58:55;99900.47;;;7.00;100.00
67840;BME280;54636;51.684;5.142;2024-03-02T01:01:21;99917.16;;;6.98;100.00
67840;BME280;54636;51.684;5.142;2024-03-02T01:03:46;99911.22;;;6.94;100.00
67840;BME280;54636;51.684;5.142;2024-03-02T01:06:12;99905.81;;;6.94;100.00
67840;BME280;54636;51.684;5.142;2024-03-02T01:08:38;99901.22;;;7.00;100.00
67840;BME280;54636;51.684;5.142;2024-03-02T01:11:03;99904.34;;;6.93;100.00
67840;BME280;54636;51.684;5.142;2024-03-02T01:13:29;99897.94;;;6.90;100.00
67840;BME280;54636;51.684;5.142;2024-03-02T01:15:55;99916.09;;;6.90;100.00
67840;BME280;54636;51.684;5.142;2024-03-02T01:18:20;99926.41;;;6.91;100.00
67840;BME280;54636;51.684;5.142;2024-03-02T01:20:47;99915.59;;;6.91;100.00
67840;BME280;54636;51.684;5.142;2024-03-02T01:23:12;99928.56;;;6.87;100.00
67840;BME280;54636;51.684;5.142;2024-03-02T01:25:38;99946.72;;;6.87;100.00
67840;BME280;54636;51.684;5.142;2024-03-02T01:28:04;99943.50;;;6.83;100.00
67840;BME280;54636;51.684;5.142;2024-03-02T01:30:29;99922.59;;;6.78;100.00
67840;BME280;54636;51.684;5.142;2024-03-02T01:32:55;99944.22;;;6.83;100.00
67840;BME280;54636;51.684;5.142;2024-03-02T01:35:20;99935.13;;;6.81;100.00
67840;BME280;54636;51.684;5.142;2024-03-02T01:37:45;99939.03;;;6.80;100.00
67840;BME280;54636;51.684;5.142;2024-03-02T01:40:11;99933.91;;;6.82;100.00
67840;BME280;54636;51.684;5.142;2024-03-02T01:42:37;99940.06;;;6.82;100.00
67840;BME280;54636;51.684;5.142;2024-03-02T01:45:05;99951.78;;;6.79;100.00
67840;BME280;54636;51.684;5.142;2024-03-02T01:47:30;99954.22;;;6.77;100.00
67840;BME280;54636;51.684;5.142;2024-03-02T01:49:57;99964.28;;;6.77;100.00
67840;BME280;54636;51.684;5.142;2024-03-02T01:52:23;99951.72;;;6.74;100.00
67840;BME280;54636;51.684;5.142;2024-03-02T01:54:51;99948.56;;;6.75;100.00
67840;BME280;54636;51.684;5.142;2024-03-02T01:57:17;99953.28;;;6.80;100.00
67840;BME280;54636;51.684;5.142;2024-03-02T01:59:43;99952.75;;;6.76;100.00
67840;BME280;54636;51.684;5.142;2024-03-02T02:02:08;99945.13;;;6.75;100.00
67840;BME280;54636;51.684;5.142;2024-03-02T02:04:34;99934.31;;;6.75;100.00
67840;BME280;54636;51.684;5.142;2024-03-02T02:06:59;99937.28;;;6.77;100.00
67840;BME280;54636;51.684;5.142;2024-03-02T02:09:25;99941.88;;;6.71;100.00
67840;BME280;54636;51.684;5.142;2024-03-02T02:11:51;99944.31;;;6.69;100.00
67840;BME280;54636;51.684;5.142;2024-03-02T02:14:17;99946.81;;;6.72;100.00
67840;BME280;54636;51.684;5.142;2024-03-02T02:16:42;99945.75;;;6.64;100.00
67840;BME280;54636;51.684;5.142;2024-03-02T02:19:08;99939.13;;;6.65;100.00
67840;BME280;54636;51.684;5.142;2024-03-02T02:21:33;99933.25;;;6.67;100.00
67840;BME280;54636;51.684;5.142;2024-03-02T02:23:58;99937.72;;;6.70;100.00
67840;BME280;54636;51.684;5.142;2024-03-02T02:26:24;99936.91;;;6.64;100.00
67840;BME280;54636;51.684;5.142;2024-03-02T02:28:50;99945.19;;;6.60;100.00
67840;BME280;54636;51.684;5.142;2024-03-02T02:31:15;99939.81;;;6.60;100.00
67840;BME280;54636;51.684;5.142;2024-03-02T02:33:42;99941.50;;;6.57;100.00
67840;BME280;54636;51.684;5.142;2024-03-02T02:36:07;99939.81;;;6.60;100.00
67840;BME280;54636;51.684;5.142;2024-03-02T02:38:37;99932.81;;;6.48;100.00
67840;BME280;54636;51.684;5.142;2024-03-02T02:41:03;99935.78;;;6.50;100.00
67840;BME280;54636;51.684;5.142;2024-03-02T02:43:28;99933.50;;;6.43;100.00
67840;BME280;54636;51.684;5.142;2024-03-02T02:45:53;99933.28;;;6.46;100.00
67840;BME280;54636;51.684;5.142;2024-03-02T02:48:19;99930.44;;;6.55;100.00
67840;BME280;54636;51.684;5.142;2024-03-02T02:50:44;99927.00;;;6.55;100.00
67840;BME280;54636;51.684;5.142;2024-03-02T02:53:10;99928.22;;;6.54;100.00
67840;BME280;54636;51.684;5.142;2024-03-02T02:55:35;99925.56;;;6.59;100.00
67840;BME280;54636;51.684;5.142;2024-03-02T02:58:05;99923.63;;;6.60;100.00
67840;BME280;54636;51.684;5.142;2024-03-02T03:00:30;99924.94;;;6.44;100.00
67840;BME280;54636;51.684;5.142;2024-03-02T03:02:56;99925.06;;;6.35;100.00
67840;BME280;54636;51.684;5.142;2024-03-02T03:05:21;99927.41;;;6.27;100.00
67840;BME280;54636;51.684;5.142;2024-03-02T03:07:46;99924.66;;;6.22;100.00
67840;BME280;54636;51.684;5.142;2024-03-02T03:10:15;99932.41;;;6.14;100.00
67840;BME280;54636;51.684;5.142;2024-03-02T03:12:42;99932.53;;;6.05;100.00
67840;BME280;54636;51.684;5.142;2024-03-02T03:15:09;99933.00;;;6.04;100.00
67840;BME280;54636;51.684;5.142;2024-03-02T03:17:35;99928.81;;;6.03;100.00
67840;BME280;54636;51.684;5.142;2024-03-02T03:20:01;99935.88;;;6.00;100.00
67840;BME280;54636;51.684;5.142;2024-03-02T03:22:27;99941.56;;;6.02;100.00
67840;BME280;54636;51.684;5.142;2024-03-02T03:24:52;99933.25;;;6.06;100.00
67840;BME280;54636;51.684;5.142;2024-03-02T03:27:18;99940.22;;;6.12;100.00
67840;BME280;54636;51.684;5.142;2024-03-02T03:29:44;99943.25;;;6.20;100.00
67840;BME280;54636;51.684;5.142;2024-03-02T03:32:10;99943.00;;;6.18;100.00
67840;BME280;54636;51.684;5.142;2024-03-02T03:34:35;99942.25;;;6.17;100.00
67840;BME280;54636;51.684;5.142;2024-03-02T03:37:02;99947.56;;;6.12;100.00
67840;BME280;54636;51.684;5.142;2024-03-02T03:39:27;99952.22;;;6.11;100.00
67840;BME280;54636;51.684;5.142;2024-03-02T03:41:53;99955.38;;;6.10;100.00
67840;BME280;54636;51.684;5.142;2024-03-02T03:44:19;99955.66;;;6.12;100.00
67840;BME280;54636;51.684;5.142;2024-03-02T03:46:44;99953.41;;;6.10;100.00
67840;BME280;54636;51.684;5.142;2024-03-02T03:49:10;99953.41;;;6.10;100.00
67840;BME280;54636;51.684;5.142;2024-03-02T03:51:35;99959.94;;;6.04;100.00
67840;BME280;54636;51.684;5.142;2024-03-02T03:54:01;99956.91;;;5.96;100.00
67840;BME280;54636;51.684;5.142;2024-03-02T03:56:26;99963.22;;;5.93;100.00
67840;BME280;54636;51.684;5.142;2024-03-02T03:58:51;99964.44;;;5.92;100.00
67840;BME280;54636;51.684;5.142;2024-03-02T04:01:17;99961.63;;;6.01;100.00
67840;BME280;54636;51.684;5.142;2024-03-02T04:03:43;99959.88;;;5.98;100.00
67840;BME280;54636;51.684;5.142;2024-03-02T04:06:08;99942.41;;;5.93;100.00
67840;BME280;54636;51.684;5.142;2024-03-02T04:08:33;99960.31;;;6.11;100.00
67840;BME280;54636;51.684;5.142;2024-03-02T04:10:59;99963.28;;;6.13;100.00
67840;BME280;54636;51.684;5.142;2024-03-02T04:13:24;99954.72;;;6.15;100.00
67840;BME280;54636;51.684;5.142;2024-03-02T04:15:49;99966.03;;;6.19;100.00
67840;BME280;54636;51.684;5.142;2024-03-02T04:18:15;99960.66;;;6.19;100.00
67840;BME280;54636;51.684;5.142;2024-03-02T04:20:41;99958.03;;;6.24;100.00
67840;BME280;54636;51.684;5.142;2024-03-02T04:23:07;99963.03;;;6.32;100.00
67840;BME280;54636;51.684;5.142;2024-03-02T04:25:33;99959.97;;;6.24;100.00
67840;BME280;54636;51.684;5.142;2024-03-02T04:27:58;99958.78;;;6.25;100.00
67840;BME280;54636;51.684;5.142;2024-03-02T04:30:23;99961.19;;;6.23;100.00
67840;BME280;54636;51.684;5.142;2024-03-02T04:32:50;99964.56;;;6.18;100.00
67840;BME280;54636;51.684;5.142;2024-03-02T04:35:15;99963.28;;;6.13;100.00
67840;BME280;54636;51.684;5.142;2024-03-02T04:37:41;99966.91;;;6.10;100.00
67840;BME280;54636;51.684;5.142;2024-03-02T04:40:06;99967.56;;;6.05;100.00
67840;BME280;54636;51.684;5.142;2024-03-02T04:42:35;99963.22;;;5.93;100.00
67840;BME280;54636;51.684;5.142;2024-03-02T04:45:01;99969.72;;;5.86;100.00
67840;BME280;54636;51.684;5.142;2024-03-02T04:47:26;99973.25;;;5.92;100.00
67840;BME280;54636;51.684;5.142;2024-03-02T04:49:52;99975.50;;;5.79;100.00
67840;BME280;54636;51.684;5.142;2024-03-02T04:52:17;99983.59;;;5.79;100.00
67840;BME280;54636;51.684;5.142;2024-03-02T04:54:43;99986.75;;;5.78;100.00
67840;BME280;54636;51.684;5.142;2024-03-02T04:57:27;99990.94;;;5.79;100.00
67840;BME280;54636;51.684;5.142;2024-03-02T04:59:53;99986.69;;;5.72;100.00
67840;BME280;54636;51.684;5.142;2024-03-02T05:02:18;99984.91;;;5.69;100.00
67840;BME280;54636;51.684;5.142;2024-03-02T05:04:43;99987.59;;;5.69;100.00
67840;BME280;54636;51.684;5.142;2024-03-02T05:07:09;99990.03;;;5.67;100.00
67840;BME280;54636;51.684;5.142;2024-03-02T05:09:34;99990.22;;;5.63;100.00
67840;BME280;54636;51.684;5.142;2024-03-02T05:11:59;99995.41;;;5.67;100.00
67840;BME280;54636;51.684;5.142;2024-03-02T05:14:43;99991.03;;;5.70;100.00
67840;BME280;54636;51.684;5.142;2024-03-02T05:17:09;99994.19;;;5.68;100.00
67840;BME280;54636;51.684;5.142;2024-03-02T05:19:34;99997.53;;;5.63;100.00
67840;BME280;54636;51.684;5.142;2024-03-02T05:21:59;99992.06;;;5.57;100.00
67840;BME280;54636;51.684;5.142;2024-03-02T05:24:25;99982.59;;;5.47;100.00
67840;BME280;54636;51.684;5.142;2024-03-02T05:26:53;99992.63;;;5.47;100.00
67840;BME280;54636;51.684;5.142;2024-03-02T05:29:18;99995.22;;;5.41;100.00
67840;BME280;54636;51.684;5.142;2024-03-02T05:31:43;100006.09;;;5.32;100.00
67840;BME280;54636;51.684;5.142;2024-03-02T05:34:09;100008.94;;;5.28;100.00
67840;BME280;54636;51.684;5.142;2024-03-02T05:36:34;100005.25;;;5.26;100.00
67840;BME280;54636;51.684;5.142;2024-03-02T05:39:00;100011.47;;;5.32;100.00
67840;BME280;54636;51.684;5.142;2024-03-02T05:41:25;100015.94;;;5.35;100.00
67840;BME280;54636;51.684;5.142;2024-03-02T05:43:50;100014.81;;;5.42;100.00
67840;BME280;54636;51.684;5.142;2024-03-02T05:46:16;100006.91;;;5.38;100.00
67840;BME280;54636;51.684;5.142;2024-03-02T05:48:41;100012.78;;;5.37;100.00
67840;BME280;54636;51.684;5.142;2024-03-02T05:51:06;100018.34;;;5.33;100.00
67840;BME280;54636;51.684;5.142;2024-03-02T05:53:32;100022.03;;;5.21;100.00
67840;BME280;54636;51.684;5.142;2024-03-02T05:55:57;100027.53;;;5.26;100.00
67840;BME280;54636;51.684;5.142;2024-03-02T05:58:23;100018.69;;;5.26;100.00
67840;BME280;54636;51.684;5.142;2024-03-02T06:01:02;100024.38;;;5.28;100.00
67840;BME280;54636;51.684;5.142;2024-03-02T06:03:28;100023.81;;;5.39;100.00
67840;BME280;54636;51.684;5.142;2024-03-02T06:05:54;100029.50;;;5.41;100.00
67840;BME280;54636;51.684;5.142;2024-03-02T06:08:20;100027.53;;;5.41;100.00
67840;BME280;54636;51.684;5.142;2024-03-02T06:10:45;100026.44;;;5.48;100.00
67840;BME280;54636;51.684;5.142;2024-03-02T06:13:11;100030.25;;;5.56;100.00
67840;BME280;54636;51.684;5.142;2024-03-02T06:15:36;100033.31;;;5.63;100.00
67840;BME280;54636;51.684;5.142;2024-03-02T06:18:02;100028.56;;;5.73;100.00
67840;BME280;54636;51.684;5.142;2024-03-02T06:20:27;100028.13;;;5.75;100.00
67840;BME280;54636;51.684;5.142;2024-03-02T06:22:55;100033.97;;;5.73;100.00
67840;BME280;54636;51.684;5.142;2024-03-02T06:25:21;100038.34;;;5.71;100.00
67840;BME280;54636;51.684;5.142;2024-03-02T06:27:46;100033.97;;;5.73;100.00
67840;BME280;54636;51.684;5.142;2024-03-02T06:30:12;100038.25;;;5.65;100.00
67840;BME280;54636;51.684;5.142;2024-03-02T06:32:37;100036.56;;;5.68;100.00
67840;BME280;54636;51.684;5.142;2024-03-02T06:35:03;100035.25;;;5.63;100.00
67840;BME280;54636;51.684;5.142;2024-03-02T06:37:30;100041.13;;;5.61;100.00
67840;BME280;54636;51.684;5.142;2024-03-02T06:39:55;100047.91;;;5.57;100.00
67840;BME280;54636;51.684;5.142;2024-03-02T06:42:20;100048.34;;;5.55;100.00
67840;BME280;54636;51.684;5.142;2024-03-02T06:44:46;100047.91;;;5.57;100.00
67840;BME280;54636;51.684;5.142;2024-03-02T06:47:11;100051.06;;;5.55;100.00
67840;BME280;54636;51.684;5.142;2024-03-02T06:49:36;100054.03;;;5.57;100.00
67840;BME280;54636;51.684;5.142;2024-03-02T06:52:02;100050.88;;;5.59;100.00
67840;BME280;54636;51.684;5.142;2024-03-02T06:54:27;100053.19;;;5.66;100.00
67840;BME280;54636;51.684;5.142;2024-03-02T06:56:53;100047.91;;;5.72;100.00
67840;BME280;54636;51.684;5.142;2024-03-02T06:59:18;100065.19;;;5.80;100.00
67840;BME280;54636;51.684;5.142;2024-03-02T07:01:43;100053.38;;;5.92;100.00
67840;BME280;54636;51.684;5.142;2024-03-02T07:04:09;100064.63;;;5.90;100.00
67840;BME280;54636;51.684;5.142;2024-03-02T07:06:34;100064.25;;;5.98;100.00
67840;BME280;54636;51.684;5.142;2024-03-02T07:08:59;100066.13;;;5.91;100.00
67840;BME280;54636;51.684;5.142;2024-03-02T07:11:25;100058.47;;;6.05;100.00
67840;BME280;54636;51.684;5.142;2024-03-02T07:13:50;100062.94;;;6.08;100.00
67840;BME280;54636;51.684;5.142;2024-03-02T07:16:15;100069.47;;;6.01;100.00
67840;BME280;54636;51.684;5.142;2024-03-02T07:18:54;100077.53;;;6.01;100.00
67840;BME280;54636;51.684;5.142;2024-03-02T07:21:20;100074.00;;;5.95;100.00
67840;BME280;54636;51.684;5.142;2024-03-02T07:23:47;100078.84;;;6.06;100.00
67840;BME280;54636;51.684;5.142;2024-03-02T07:26:13;100081.81;;;5.93;100.00
67840;BME280;54636;51.684;5.142;2024-03-02T07:28:40;100085.34;;;5.99;100.00
67840;BME280;54636;51.684;5.142;2024-03-02T07:31:06;100082.66;;;5.84;100.00
67840;BME280;54636;51.684;5.142;2024-03-02T07:33:32;100087.50;;;5.80;100.00
67840;BME280;54636;51.684;5.142;2024-03-02T07:36:00;100089.63;;;5.76;100.00
67840;BME280;54636;51.684;5.142;2024-03-02T07:38:26;100092.59;;;5.78;100.00
67840;BME280;54636;51.684;5.142;2024-03-02T07:40:52;100093.72;;;5.72;100.00
67840;BME280;54636;51.684;5.142;2024-03-02T07:43:21;100096.13;;;5.70;100.00
67840;BME280;54636;51.684;5.142;2024-03-02T07:45:47;100090.34;;;5.62;100.00
67840;BME280;54636;51.684;5.142;2024-03-02T07:48:12;100092.31;;;5.61;100.00
67840;BME280;54636;51.684;5.142;2024-03-02T07:50:38;100101.13;;;5.62;100.00
67840;BME280;54636;51.684;5.142;2024-03-02T07:53:04;100101.59;;;5.60;100.00
67840;BME280;54636;51.684;5.142;2024-03-02T07:55:31;100113.78;;;5.71;100.00
67840;BME280;54636;51.684;5.142;2024-03-02T07:57:56;100099.56;;;5.85;100.00
67840;BME280;54636;51.684;5.142;2024-03-02T08:00:23;100104.97;;;6.00;100.00
67840;BME280;54636;51.684;5.142;2024-03-02T08:02:49;100106.34;;;6.10;100.00
67840;BME280;54636;51.684;5.142;2024-03-02T08:05:16;100104.38;;;6.25;100.00
67840;BME280;54636;51.684;5.142;2024-03-02T08:07:43;100104.66;;;6.42;100.00
67840;BME280;54636;51.684;5.142;2024-03-02T08:10:09;100103.84;;;6.56;100.00
67840;BME280;54636;51.684;5.142;2024-03-02T08:12:34;100092.59;;;6.57;100.00
67840;BME280;54636;51.684;5.142;2024-03-02T08:15:00;100111.25;;;6.76;100.00
67840;BME280;54636;51.684;5.142;2024-03-02T08:17:25;100102.28;;;6.84;100.00
67840;BME280;54636;51.684;5.142;2024-03-02T08:19:51;100107.75;;;6.90;100.00
67840;BME280;54636;51.684;5.142;2024-03-02T08:22:16;100111.41;;;7.07;100.00
67840;BME280;54636;51.684;5.142;2024-03-02T08:24:42;100102.63;;;7.12;100.00
67840;BME280;54636;51.684;5.142;2024-03-02T08:27:07;100099.94;;;7.12;100.00
67840;BME280;54636;51.684;5.142;2024-03-02T08:29:32;100093.94;;;7.28;100.00
67840;BME280;54636;51.684;5.142;2024-03-02T08:31:58;100086.84;;;7.31;100.00
67840;BME280;54636;51.684;5.142;2024-03-02T08:34:23;100090.84;;;7.36;100.00
67840;BME280;54636;51.684;5.142;2024-03-02T08:36:49;100097.56;;;7.46;100.00
67840;BME280;54636;51.684;5.142;2024-03-02T08:39:14;100094.59;;;7.44;100.00
67840;BME280;54636;51.684;5.142;2024-03-02T08:41:44;100092.09;;;7.60;100.00
67840;BME280;54636;51.684;5.142;2024-03-02T08:44:10;100099.28;;;7.69;100.00
67840;BME280;54636;51.684;5.142;2024-03-02T08:46:36;100103.06;;;7.77;100.00
67840;BME280;54636;51.684;5.142;2024-03-02T08:49:01;100105.03;;;7.82;100.00
67840;BME280;54636;51.684;5.142;2024-03-02T08:51:27;100116.47;;;7.98;100.00
67840;BME280;54636;51.684;5.142;2024-03-02T08:53:52;100114.25;;;7.96;100.00
67840;BME280;54636;51.684;5.142;2024-03-02T08:56:17;100109.69;;;8.08;100.00
67840;BME280;54636;51.684;5.142;2024-03-02T08:58:43;100112.69;;;8.15;100.00
67840;BME280;54636;51.684;5.142;2024-03-02T09:01:10;100112.78;;;8.26;100.00
67840;BME280;54636;51.684;5.142;2024-03-02T09:03:36;100120.06;;;8.41;100.00
67840;BME280;54636;51.684;5.142;2024-03-02T09:06:02;100114.91;;;8.43;100.00
67840;BME280;54636;51.684;5.142;2024-03-02T09:08:28;100115.94;;;8.56;100.00
67840;BME280;54636;51.684;5.142;2024-03-02T09:10:54;100110.28;;;8.54;100.00
67840;BME280;54636;51.684;5.142;2024-03-02T09:13:20;100120.00;;;8.72;100.00
67840;BME280;54636;51.684;5.142;2024-03-02T09:15:45;100122.00;;;8.77;100.00
67840;BME280;54636;51.684;5.142;2024-03-02T09:18:10;100125.94;;;8.82;100.00
67840;BME280;54636;51.684;5.142;2024-03-02T09:20:36;100129.16;;;8.80;100.00
67840;BME280;54636;51.684;5.142;2024-03-02T09:23:01;100130.88;;;8.83;100.00
67840;BME280;54636;51.684;5.142;2024-03-02T09:25:27;100124.06;;;8.99;100.00
67840;BME280;54636;51.684;5.142;2024-03-02T09:27:52;100127.28;;;9.03;100.00
67840;BME280;54636;51.684;5.142;2024-03-02T09:30:18;100122.88;;;9.11;100.00
67840;BME280;54636;51.684;5.142;2024-03-02T09:32:43;100110.59;;;9.21;100.00
67840;BME280;54636;51.684;5.142;2024-03-02T09:35:08;100129.91;;;9.46;100.00
67840;BME280;54636;51.684;5.142;2024-03-02T09:37:37;100108.19;;;9.40;100.00
67840;BME280;54636;51.684;5.142;2024-03-02T09:40:03;100109.44;;;9.45;100.00
67840;BME280;54636;51.684;5.142;2024-03-02T09:42:29;100107.25;;;9.54;100.00
67840;BME280;54636;51.684;5.142;2024-03-02T09:44:55;100107.53;;;9.68;100.00
67840;BME280;54636;51.684;5.142;2024-03-02T09:47:20;100107.28;;;9.82;100.00
67840;BME280;54636;51.684;5.142;2024-03-02T09:49:46;100116.91;;;9.95;100.00
67840;BME280;54636;51.684;5.142;2024-03-02T09:52:12;100108.28;;;9.96;97.66
67840;BME280;54636;51.684;5.142;2024-03-02T09:54:38;100112.97;;;10.01;97.69
67840;BME280;54636;51.684;5.142;2024-03-02T09:57:04;100107.53;;;10.07;98.61
67840;BME280;54636;51.684;5.142;2024-03-02T09:59:29;100111.50;;;10.17;96.42
67840;BME280;54636;51.684;5.142;2024-03-02T10:01:56;100114.22;;;10.28;95.07
67840;BME280;54636;51.684;5.142;2024-03-02T10:04:27;100127.81;;;10.34;92.45
67840;BME280;54636;51.684;5.142;2024-03-02T10:07:15;100113.69;;;10.46;91.48
67840;BME280;54636;51.684;5.142;2024-03-02T10:09:41;100115.16;;;10.47;90.16
67840;BME280;54636;51.684;5.142;2024-03-02T10:12:10;100128.75;;;10.42;88.42
67840;BME280;54636;51.684;5.142;2024-03-02T10:14:37;100113.69;;;10.41;91.11
67840;BME280;54636;51.684;5.142;2024-03-02T10:17:07;100107.00;;;10.64;87.76
67840;BME280;54636;51.684;5.142;2024-03-02T10:19:34;100109.47;;;10.68;90.91
67840;BME280;54636;51.684;5.142;2024-03-02T10:22:09;100098.56;;;10.79;88.57
67840;BME280;54636;51.684;5.142;2024-03-02T10:24:42;100099.06;;;10.83;88.01
67840;BME280;54636;51.684;5.142;2024-03-02T10:27:16;100092.59;;;10.97;87.32
67840;BME280;54636;51.684;5.142;2024-03-02T10:29:42;100089.56;;;11.06;84.74
67840;BME280;54636;51.684;5.142;2024-03-02T10:32:11;100093.94;;;11.20;85.64
67840;BME280;54636;51.684;5.142;2024-03-02T10:34:39;100083.28;;;11.28;81.49
67840;BME280;54636;51.684;5.142;2024-03-02T10:37:05;100082.22;;;11.42;83.62
67840;BME280;54636;51.684;5.142;2024-03-02T10:39:31;100080.19;;;11.48;76.43
67840;BME280;54636;51.684;5.142;2024-03-02T10:41:57;100088.09;;;11.52;77.56
67840;BME280;54636;51.684;5.142;2024-03-02T10:44:23;100081.38;;;11.59;79.61
67840;BME280;54636;51.684;5.142;2024-03-02T10:46:52;100089.03;;;11.60;74.79
67840;BME280;54636;51.684;5.142;2024-03-02T10:49:19;100075.28;;;11.82;75.18
67840;BME280;54636;51.684;5.142;2024-03-02T10:51:46;100080.22;;;11.84;69.88
67840;BME280;54636;51.684;5.142;2024-03-02T10:54:11;100082.47;;;11.80;66.95
67840;BME280;54636;51.684;5.142;2024-03-02T10:56:41;100081.63;;;11.61;70.42
67840;BME280;54636;51.684;5.142;2024-03-02T10:59:35;100080.09;;;11.65;73.08
67840;BME280;54636;51.684;5.142;2024-03-02T11:02:02;100078.06;;;11.71;67.86
67840;BME280;54636;51.684;5.142;2024-03-02T11:04:30;100070.47;;;11.64;68.20
67840;BME280;54636;51.684;5.142;2024-03-02T11:07:07;100074.59;;;11.71;69.71
67840;BME280;54636;51.684;5.142;2024-03-02T11:09:34;100077.78;;;11.80;66.82
67840;BME280;54636;51.684;5.142;2024-03-02T11:12:06;100074.00;;;11.89;64.42
67840;BME280;54636;51.684;5.142;2024-03-02T11:14:36;100075.19;;;11.94;63.42
67840;BME280;54636;51.684;5.142;2024-03-02T11:17:03;100074.47;;;11.93;61.93
67840;BME280;54636;51.684;5.142;2024-03-02T11:19:31;100084.13;;;11.88;67.31
67840;BME280;54636;51.684;5.142;2024-03-02T11:21:57;100075.47;;;11.90;64.53
67840;BME280;54636;51.684;5.142;2024-03-02T11:26:52;100081.16;;;11.92;63.96
67840;BME280;54636;51.684;5.142;2024-03-02T11:32:20;100078.75;;;12.13;65.80
67840;BME280;54636;51.684;5.142;2024-03-02T11:34:47;100079.16;;;12.23;63.10
67840;BME280;54636;51.684;5.142;2024-03-02T11:37:15;100073.72;;;12.23;63.01
67840;BME280;54636;51.684;5.142;2024-03-02T11:39:43;100071.03;;;12.17;63.39
67840;BME280;54636;51.684;5.142;2024-03-02T11:42:09;100070.50;;;12.24;61.73
67840;BME280;54636;51.684;5.142;2024-03-02T11:44:36;100066.97;;;12.29;61.62
67840;BME280;54636;51.684;5.142;2024-03-02T11:47:05;100068.22;;;12.28;62.95
67840;BME280;54636;51.684;5.142;2024-03-02T11:52:07;100053.34;;;12.29;61.69
67840;BME280;54636;51.684;5.142;2024-03-02T11:54:33;100042.84;;;12.39;63.08
67840;BME280;54636;51.684;5.142;2024-03-02T11:57:02;100044.03;;;12.43;62.47
67840;BME280;54636;51.684;5.142;2024-03-02T11:59:28;100049.81;;;12.59;59.62
67840;BME280;54636;51.684;5.142;2024-03-02T12:01:54;100044.88;;;12.57;60.80
67840;BME280;54636;51.684;5.142;2024-03-02T12:04:21;100044.88;;;12.57;62.00
67840;BME280;54636;51.684;5.142;2024-03-02T12:06:48;100041.88;;;12.61;60.54
67840;BME280;54636;51.684;5.142;2024-03-02T12:09:20;100035.38;;;12.64;62.54
67840;BME280;54636;51.684;5.142;2024-03-02T12:11:46;100028.69;;;12.65;59.70
67840;BME280;54636;51.684;5.142;2024-03-02T12:14:11;100014.53;;;12.47;59.61
67840;BME280;54636;51.684;5.142;2024-03-02T12:16:38;100021.66;;;12.50;62.27
67840;BME280;54636;51.684;5.142;2024-03-02T12:19:05;100017.97;;;12.48;60.35
67840;BME280;54636;51.684;5.142;2024-03-02T12:21:31;100012.31;;;12.46;60.06
67840;BME280;54636;51.684;5.142;2024-03-02T12:23:57;99996.19;;;12.48;59.52
67840;BME280;54636;51.684;5.142;2024-03-02T12:26:22;100000.25;;;12.60;58.75
67840;BME280;54636;51.684;5.142;2024-03-02T12:28:48;100003.84;;;12.49;59.63
67840;BME280;54636;51.684;5.142;2024-03-02T12:31:14;99989.44;;;12.54;61.09
67840;BME280;54636;51.684;5.142;2024-03-02T12:33:40;99988.56;;;12.65;60.43
67840;BME280;54636;51.684;5.142;2024-03-02T12:36:09;99998.88;;;12.72;60.29
67840;BME280;54636;51.684;5.142;2024-03-02T12:38:37;99990.13;;;12.79;60.34
67840;BME280;54636;51.684;5.142;2024-03-02T12:41:02;99985.69;;;12.76;59.92
67840;BME280;54636;51.684;5.142;2024-03-02T12:43:31;99992.78;;;12.85;60.74
67840;BME280;54636;51.684;5.142;2024-03-02T12:45:57;99977.44;;;12.82;60.04
67840;BME280;54636;51.684;5.142;2024-03-02T12:48:23;99980.69;;;12.80;59.72
67840;BME280;54636;51.684;5.142;2024-03-02T12:50:49;99983.13;;;12.84;58.66
67840;BME280;54636;51.684;5.142;2024-03-02T12:53:15;99977.53;;;12.76;59.53
67840;BME280;54636;51.684;5.142;2024-03-02T12:55:41;99974.50;;;12.80;60.65
67840;BME280;54636;51.684;5.142;2024-03-02T12:58:07;99972.81;;;12.77;60.43
67840;BME280;54636;51.684;5.142;2024-03-02T13:00:32;99964.13;;;12.78;57.94
67840;BME280;54636;51.684;5.142;2024-03-02T13:03:00;99963.38;;;12.78;59.48